Ufo 3 — IUNV — position and weather

sailwx.info

Track history (hours):
 
Tides and Currents Weather Stations Pressure Air Temp Water Temp Dewpoint Dewpoint Depression Visibility Wind Speed Wind Dir Waves Ship Positions

Ufo 3

Last reported at 2014-Sep-22 16:05 UTC. Time now 2014-Sep-22 20:16 UTC.
Position N 44°03' E 009°51'.

Length 28 m.

Type: Passenger vessel. MMSI: 247031600.

Date/timePositionNaut miles runAvg speedWind from/ knotsBaromVisibWave heightAir tempDewpointWater temp
2014-Sep-22 16:05N 44°03' E 009°51'610.8
2014-Sep-22 15:33N 44°06' E 009°44'0 0.0
2014-Sep-22 13:27N 44°06' E 009°44'5 5.8
2014-Sep-22 12:33N 44°03' E 009°50'0 0.0
2014-Sep-22 11:33N 44°03' E 009°50'8 6.5
2014-Sep-22 10:16N 44°08' E 009°41'3 3.0
2014-Sep-22 09:13N 44°06' E 009°44'6 8.7
2014-Sep-22 08:33N 44°03' E 009°51'3 3.0
2014-Sep-22 07:33N 44°06' E 009°50'3 2.7
2014-Sep-22 06:33N 44°03' E 009°51'1 0.1
2014-Sep-21 16:33N 44°04' E 009°52'7 1.1
2014-Sep-21 10:30N 44°06' E 009°44'6 6.0
2014-Sep-21 09:33N 44°03' E 009°50'0 0.0
2014-Sep-21 08:33N 44°03' E 009°50'0 0.0
2014-Sep-21 07:33N 44°03' E 009°50'0 0.0
2014-Sep-21 06:33N 44°03' E 009°50'3 0.2
2014-Sep-20 16:33N 44°05' E 009°54'0 0.3
2014-Sep-20 15:33N 44°04' E 009°54'3 3.0
2014-Sep-20 14:33N 44°03' E 009°50'2 1.7
2014-Sep-20 13:33N 44°04' E 009°48'8 3.8
2014-Sep-20 11:28N 44°09' E 009°39'4 2.2
2014-Sep-20 09:28N 44°06' E 009°44'5 5.7
2014-Sep-20 08:34N 44°03' E 009°50'3 3.4
2014-Sep-20 07:33N 44°04' E 009°55'3 2.9
2014-Sep-20 06:33N 44°03' E 009°51'1 0.0
2014-Sep-19 14:34N 44°03' E 009°50'10 4.7
2014-Sep-19 12:32N 44°09' E 009°39'4 1.0
2014-Sep-19 08:22N 44°06' E 009°44'4 5.3
2014-Sep-19 07:33N 44°06' E 009°50'3 3.0
2014-Sep-19 06:33N 44°03' E 009°50'0 0.4
2014-Sep-19 05:33N 44°03' E 009°51'0 0.0
2014-Sep-18 17:33N 44°03' E 009°51'1210.1
2014-Sep-18 16:25N 44°09' E 009°37'6 5.8
2014-Sep-18 15:25N 44°06' E 009°44'5 6.1
2014-Sep-18 14:33N 44°03' E 009°50'3 3.5
2014-Sep-18 13:33N 44°04' E 009°46'2 0.6
2014-Sep-18 10:26N 44°06' E 009°44'8 8.9
2014-Sep-18 09:34N 44°04' E 009°55'3 3.4
2014-Sep-18 08:33N 44°03' E 009°50'3 3.4
2014-Sep-18 07:33N 44°04' E 009°55'3 3.1
2014-Sep-18 06:33N 44°03' E 009°51'0 0.0
2014-Sep-17 11:33N 44°03' E 009°51'1 1.0
2014-Sep-17 10:33N 44°02' E 009°51'6 5.6
2014-Sep-17 09:33N 44°05' E 009°44'5 4.8
2014-Sep-17 08:30N 44°09' E 009°39'2 1.6
2014-Sep-17 07:34N 44°08' E 009°38'1010.1
2014-Sep-17 06:33N 44°03' E 009°51'0 0.0
2014-Sep-16 14:29N 44°03' E 009°51'4 4.7
2014-Sep-16 13:33N 44°05' E 009°45'6 5.3
2014-Sep-16 12:28N 44°09' E 009°39'0 0.0
2014-Sep-16 11:31N 44°09' E 009°39'0 0.1
2014-Sep-16 09:10N 44°08' E 009°40'5 8.1
2014-Sep-16 08:34N 44°05' E 009°44'4 3.9
2014-Sep-16 07:33N 44°06' E 009°50'4 0.2
2014-Sep-15 14:28N 44°06' E 009°44'8 8.5
2014-Sep-15 13:33N 44°04' E 009°54'0 0.0
2014-Sep-15 12:34N 44°04' E 009°54'0 0.1
2014-Sep-15 11:33N 44°04' E 009°55'3 3.4
2014-Sep-15 10:33N 44°03' E 009°50'0 0.1
2014-Sep-15 09:34N 44°03' E 009°50'0 0.0
2014-Sep-15 08:33N 44°03' E 009°50'0 0.0
2014-Sep-15 07:33N 44°03' E 009°50'0 0.4
2014-Sep-15 06:33N 44°03' E 009°51'0 0.0
2014-Sep-15 05:34N 44°03' E 009°51'0 0.0
2014-Sep-15 04:34N 44°03' E 009°51'0 0.0
2014-Sep-15 01:33N 44°03' E 009°51'0 0.0
2014-Sep-15 00:34N 44°03' E 009°51'0 0.0
2014-Sep-14 23:34N 44°03' E 009°51'0 0.0
2014-Sep-14 22:33N 44°03' E 009°51'0 0.0
2014-Sep-14 21:33N 44°03' E 009°51'0 0.0
2014-Sep-14 20:33N 44°03' E 009°51'0 0.0
2014-Sep-14 19:33N 44°03' E 009°51'0 0.0
2014-Sep-14 18:33N 44°03' E 009°51'0 0.0
2014-Sep-14 17:33N 44°03' E 009°51'3 3.3
2014-Sep-14 16:33N 44°06' E 009°50'3 3.4
2014-Sep-14 15:34N 44°03' E 009°51'1 0.8
2014-Sep-14 14:33N 44°04' E 009°51'7 6.3
2014-Sep-14 13:25N 44°07' E 009°42'2 0.4
2014-Sep-14 09:32N 44°06' E 009°44'8 7.9
2014-Sep-14 08:33N 44°04' E 009°54'3 2.8
2014-Sep-14 07:33N 44°03' E 009°51'0 0.3
2014-Sep-14 06:33N 44°03' E 009°51'3 0.2
2014-Sep-13 16:33N 44°05' E 009°54'3 3.2
2014-Sep-13 15:33N 44°03' E 009°50'0 0.0
2014-Sep-13 14:33N 44°03' E 009°50'10 9.0
2014-Sep-13 13:29N 44°09' E 009°39'4 4.6
2014-Sep-13 12:30N 44°06' E 009°44'5 5.5
2014-Sep-13 11:34N 44°03' E 009°50'2 1.6
2014-Sep-13 10:34N 44°02' E 009°51'3 3.4
2014-Sep-13 09:33N 44°04' E 009°54'3 3.1
2014-Sep-13 08:33N 44°03' E 009°50'1 1.5
2014-Sep-13 07:33N 44°02' E 009°51'2 1.6
2014-Sep-13 06:33N 44°03' E 009°50'0 0.0
2014-Sep-12 16:14N 44°03' E 009°51'  
Track history (hours):
 
Tides and Currents Weather Stations Pressure Air Temp Water Temp Dewpoint Dewpoint Depression Visibility Wind Speed Wind Dir Waves Ship Positions

Ufo 3

Last reported at 2014-Sep-22 16:05 UTC. Time now 2014-Sep-22 20:16 UTC.
Position N 44°03' E 009°51'.

Length 28 m.

Type: Passenger vessel. MMSI: 247031600.

Date/timePositionNaut miles runAvg speedWind from/ knotsBaromVisibWave heightAir tempDewpointWater temp
2014-Sep-22 16:05N 44°03' E 009°51'610.8
2014-Sep-22 15:33N 44°06' E 009°44'0 0.0
2014-Sep-22 13:27N 44°06' E 009°44'5 5.8
2014-Sep-22 12:33N 44°03' E 009°50'0 0.0
2014-Sep-22 11:33N 44°03' E 009°50'8 6.5
2014-Sep-22 10:16N 44°08' E 009°41'3 3.0
2014-Sep-22 09:13N 44°06' E 009°44'6 8.7
2014-Sep-22 08:33N 44°03' E 009°51'3 3.0
2014-Sep-22 07:33N 44°06' E 009°50'3 2.7
2014-Sep-22 06:33N 44°03' E 009°51'1 0.1
2014-Sep-21 16:33N 44°04' E 009°52'7 1.1
2014-Sep-21 10:30N 44°06' E 009°44'6 6.0
2014-Sep-21 09:33N 44°03' E 009°50'0 0.0
2014-Sep-21 08:33N 44°03' E 009°50'0 0.0
2014-Sep-21 07:33N 44°03' E 009°50'0 0.0
2014-Sep-21 06:33N 44°03' E 009°50'3 0.2
2014-Sep-20 16:33N 44°05' E 009°54'0 0.3
2014-Sep-20 15:33N 44°04' E 009°54'3 3.0
2014-Sep-20 14:33N 44°03' E 009°50'2 1.7
2014-Sep-20 13:33N 44°04' E 009°48'8 3.8
2014-Sep-20 11:28N 44°09' E 009°39'4 2.2
2014-Sep-20 09:28N 44°06' E 009°44'5 5.7
2014-Sep-20 08:34N 44°03' E 009°50'3 3.4
2014-Sep-20 07:33N 44°04' E 009°55'3 2.9
2014-Sep-20 06:33N 44°03' E 009°51'1 0.0
2014-Sep-19 14:34N 44°03' E 009°50'10 4.7
2014-Sep-19 12:32N 44°09' E 009°39'4 1.0
2014-Sep-19 08:22N 44°06' E 009°44'4 5.3
2014-Sep-19 07:33N 44°06' E 009°50'3 3.0
2014-Sep-19 06:33N 44°03' E 009°50'0 0.4
2014-Sep-19 05:33N 44°03' E 009°51'0 0.0
2014-Sep-18 17:33N 44°03' E 009°51'1210.1
2014-Sep-18 16:25N 44°09' E 009°37'6 5.8
2014-Sep-18 15:25N 44°06' E 009°44'5 6.1
2014-Sep-18 14:33N 44°03' E 009°50'3 3.5
2014-Sep-18 13:33N 44°04' E 009°46'2 0.6
2014-Sep-18 10:26N 44°06' E 009°44'8 8.9
2014-Sep-18 09:34N 44°04' E 009°55'3 3.4
2014-Sep-18 08:33N 44°03' E 009°50'3 3.4
2014-Sep-18 07:33N 44°04' E 009°55'3 3.1
2014-Sep-18 06:33N 44°03' E 009°51'0 0.0
2014-Sep-17 11:33N 44°03' E 009°51'1 1.0
2014-Sep-17 10:33N 44°02' E 009°51'6 5.6
2014-Sep-17 09:33N 44°05' E 009°44'5 4.8
2014-Sep-17 08:30N 44°09' E 009°39'2 1.6
2014-Sep-17 07:34N 44°08' E 009°38'1010.1
2014-Sep-17 06:33N 44°03' E 009°51'0 0.0
2014-Sep-16 14:29N 44°03' E 009°51'4 4.7
2014-Sep-16 13:33N 44°05' E 009°45'6 5.3
2014-Sep-16 12:28N 44°09' E 009°39'0 0.0
2014-Sep-16 11:31N 44°09' E 009°39'0 0.1
2014-Sep-16 09:10N 44°08' E 009°40'5 8.1
2014-Sep-16 08:34N 44°05' E 009°44'4 3.9
2014-Sep-16 07:33N 44°06' E 009°50'4 0.2
2014-Sep-15 14:28N 44°06' E 009°44'8 8.5
2014-Sep-15 13:33N 44°04' E 009°54'0 0.0
2014-Sep-15 12:34N 44°04' E 009°54'0 0.1
2014-Sep-15 11:33N 44°04' E 009°55'3 3.4
2014-Sep-15 10:33N 44°03' E 009°50'0 0.1
2014-Sep-15 09:34N 44°03' E 009°50'0 0.0
2014-Sep-15 08:33N 44°03' E 009°50'0 0.0
2014-Sep-15 07:33N 44°03' E 009°50'0 0.4
2014-Sep-15 06:33N 44°03' E 009°51'0 0.0
2014-Sep-15 05:34N 44°03' E 009°51'0 0.0
2014-Sep-15 04:34N 44°03' E 009°51'0 0.0
2014-Sep-15 01:33N 44°03' E 009°51'0 0.0
2014-Sep-15 00:34N 44°03' E 009°51'0 0.0
2014-Sep-14 23:34N 44°03' E 009°51'0 0.0
2014-Sep-14 22:33N 44°03' E 009°51'0 0.0
2014-Sep-14 21:33N 44°03' E 009°51'0 0.0
2014-Sep-14 20:33N 44°03' E 009°51'0 0.0
2014-Sep-14 19:33N 44°03' E 009°51'0 0.0
2014-Sep-14 18:33N 44°03' E 009°51'0 0.0
2014-Sep-14 17:33N 44°03' E 009°51'3 3.3
2014-Sep-14 16:33N 44°06' E 009°50'3 3.4
2014-Sep-14 15:34N 44°03' E 009°51'1 0.8
2014-Sep-14 14:33N 44°04' E 009°51'7 6.3
2014-Sep-14 13:25N 44°07' E 009°42'2 0.4
2014-Sep-14 09:32N 44°06' E 009°44'8 7.9
2014-Sep-14 08:33N 44°04' E 009°54'3 2.8
2014-Sep-14 07:33N 44°03' E 009°51'0 0.3
2014-Sep-14 06:33N 44°03' E 009°51'3 0.2
2014-Sep-13 16:33N 44°05' E 009°54'3 3.2
2014-Sep-13 15:33N 44°03' E 009°50'0 0.0
2014-Sep-13 14:33N 44°03' E 009°50'10 9.0
2014-Sep-13 13:29N 44°09' E 009°39'4 4.6
2014-Sep-13 12:30N 44°06' E 009°44'5 5.5
2014-Sep-13 11:34N 44°03' E 009°50'2 1.6
2014-Sep-13 10:34N 44°02' E 009°51'3 3.4
2014-Sep-13 09:33N 44°04' E 009°54'3 3.1
2014-Sep-13 08:33N 44°03' E 009°50'1 1.5
2014-Sep-13 07:33N 44°02' E 009°51'2 1.6
2014-Sep-13 06:33N 44°03' E 009°50'0 0.0
2014-Sep-12 16:14N 44°03' E 009°51'  

Dump ship's entire track history